Time;durP1;ratioP1;P1;durP2;ratioP2;P2;SDS_P1;SDS_P2;PMS_P1;PMS_P2;Temp;Humidity;BMP_temperature;BMP_pressure;BME280_temperature;BME280_humidity;BME280_pressure;Samples;Min_cycle;Max_cycle;Signal;HPM_P1;HPM_P2
2023/03/18 00:02:08;;;;;;;13.68;8.07;;;11.90;99.90;;;;;;4979457;28;20045;-85
2023/03/18 00:04:34;;;;;;;13.65;8.63;;;11.90;99.90;;;;;;4996937;28;20395;-84
2023/03/18 00:07:00;;;;;;;10.73;8.20;;;11.90;99.90;;;;;;4997137;28;20411;-84
2023/03/18 00:09:26;;;;;;;14.48;8.48;;;11.90;99.90;;;;;;4983252;28;20042;-84
2023/03/18 00:11:52;;;;;;;12.82;8.60;;;11.90;99.90;;;;;;4980904;28;20042;-84
2023/03/18 00:14:19;;;;;;;9.63;7.88;;;11.90;99.90;;;;;;4980754;28;20037;-84
2023/03/18 00:16:45;;;;;;;11.65;8.57;;;12.00;99.90;;;;;;4983402;28;20037;-84
2023/03/18 00:19:11;;;;;;;12.20;8.15;;;12.00;99.90;;;;;;4995010;28;20532;-84
2023/03/18 00:21:37;;;;;;;11.13;8.18;;;11.90;99.90;;;;;;4997571;28;20053;-84
2023/03/18 00:24:03;;;;;;;12.93;8.65;;;11.90;99.90;;;;;;4981793;28;20446;-83
2023/03/18 00:26:29;;;;;;;12.60;8.07;;;12.00;99.90;;;;;;4983116;28;20117;-85
2023/03/18 00:28:57;;;;;;;13.05;9.07;;;12.00;99.90;;;;;;4981678;28;20038;-85
2023/03/18 00:31:24;;;;;;;11.93;8.70;;;12.00;99.90;;;;;;4983064;28;20041;-85
2023/03/18 00:33:50;;;;;;;13.07;8.90;;;12.00;99.90;;;;;;4981572;28;20041;-84
2023/03/18 00:36:17;;;;;;;13.85;9.02;;;11.90;99.90;;;;;;4982391;28;20055;-85
2023/03/18 00:38:45;;;;;;;12.13;9.10;;;11.90;99.90;;;;;;5002306;28;20402;-84
2023/03/18 00:41:14;;;;;;;14.15;9.20;;;11.80;99.90;;;;;;4978637;28;20525;-84
2023/03/18 00:43:54;;;;;;;14.25;9.65;;;11.80;99.90;;;;;;4995734;28;20061;-84
2023/03/18 00:46:34;;;;;;;13.57;9.75;;;11.80;99.90;;;;;;4997256;28;20475;-85
2023/03/18 00:49:02;;;;;;;15.80;10.10;;;11.70;99.90;;;;;;4984218;28;20038;-83
2023/03/18 00:51:30;;;;;;;13.30;10.50;;;11.70;99.90;;;;;;5026331;28;20041;-84
2023/03/18 00:53:58;;;;;;;15.40;10.48;;;11.60;99.90;;;;;;4975888;28;20041;-84
2023/03/18 00:56:25;;;;;;;13.90;10.48;;;11.50;99.90;;;;;;5000634;28;20403;-84
2023/03/18 00:58:52;;;;;;;13.68;10.35;;;11.50;99.90;;;;;;4977792;28;20074;-84
2023/03/18 01:01:22;;;;;;;13.98;10.27;;;11.50;99.90;;;;;;4981181;28;20050;-84
2023/03/18 01:03:52;;;;;;;15.73;11.07;;;11.40;99.90;;;;;;4980033;28;20069;-84
2023/03/18 01:06:24;;;;;;;18.65;11.45;;;11.30;99.90;;;;;;4992664;28;20365;-84
2023/03/18 01:08:50;;;;;;;15.25;11.35;;;11.30;99.90;;;;;;5000061;28;20566;-89
2023/03/18 01:11:17;;;;;;;19.33;12.07;;;11.20;99.90;;;;;;4984305;28;20104;-89
2023/03/18 01:13:43;;;;;;;17.35;11.70;;;11.10;99.90;;;;;;4981550;28;20038;-90
2023/03/18 01:16:09;;;;;;;19.42;12.35;;;11.00;99.90;;;;;;4980075;28;20029;-90
2023/03/18 01:18:36;;;;;;;17.40;11.98;;;11.00;99.90;;;;;;4981750;28;20033;-90
2023/03/18 01:21:04;;;;;;;18.23;12.90;;;11.00;99.90;;;;;;4981169;28;20037;-89
2023/03/18 01:23:30;;;;;;;15.77;12.95;;;11.00;99.90;;;;;;5001094;28;20084;-90
2023/03/18 01:25:57;;;;;;;19.65;12.98;;;11.00;99.90;;;;;;5000682;28;20069;-90
2023/03/18 01:28:23;;;;;;;19.23;13.95;;;11.00;99.90;;;;;;4982737;28;20045;-89
2023/03/18 01:30:49;;;;;;;18.30;14.52;;;11.00;99.90;;;;;;4985884;28;20037;-90
2023/03/18 01:33:15;;;;;;;19.33;14.30;;;11.00;99.90;;;;;;4982148;28;20034;-89
2023/03/18 01:35:41;;;;;;;19.80;15.35;;;11.00;99.90;;;;;;4982279;28;20089;-90
2023/03/18 01:38:07;;;;;;;23.33;16.02;;;11.00;99.90;;;;;;4980784;28;20038;-89
2023/03/18 01:40:54;;;;;;;;;;;;;;;;;;;;;
2023/03/18 01:43:31;;;;;;;19.73;16.00;;;11.00;99.90;;;;;;4999630;28;20116;-90
2023/03/18 01:45:58;;;;;;;23.10;16.55;;;10.90;99.90;;;;;;4981980;28;20297;-90
2023/03/18 01:48:27;;;;;;;24.10;17.05;;;11.00;99.90;;;;;;4981581;28;20170;-90
2023/03/18 01:51:04;;;;;;;21.58;16.92;;;11.00;99.90;;;;;;4997148;28;20081;-90
2023/03/18 01:53:37;;;;;;;25.17;18.02;;;11.00;99.90;;;;;;4985242;28;20315;-90
2023/03/18 01:56:05;;;;;;;26.58;18.50;;;11.00;99.90;;;;;;5008458;28;20033;-90
2023/03/18 01:58:40;;;;;;;27.70;19.83;;;11.00;99.90;;;;;;5011538;28;20095;-90
2023/03/18 02:01:20;;;;;;;32.95;19.92;;;10.90;99.90;;;;;;4986449;28;20113;-90
2023/03/18 02:03:48;;;;;;;27.48;19.88;;;10.90;99.90;;;;;;4985823;28;20395;-90
2023/03/18 02:06:14;;;;;;;25.98;19.80;;;11.00;99.90;;;;;;5001043;28;20037;-90
2023/03/18 02:08:48;;;;;;;26.70;20.92;;;10.90;99.90;;;;;;4986810;28;20037;-90
2023/03/18 02:11:14;;;;;;;26.23;20.52;;;10.90;99.90;;;;;;4989085;28;20594;-91
2023/03/18 02:13:42;;;;;;;26.70;20.50;;;10.90;99.90;;;;;;5002506;28;20044;-90
2023/03/18 02:16:24;;;;;;;28.33;21.05;;;10.80;99.90;;;;;;4987147;28;20048;-90
2023/03/18 02:18:54;;;;;;;26.67;21.30;;;10.80;99.90;;;;;;4985057;28;20152;-90
2023/03/18 02:21:41;;;;;;;26.73;21.10;;;10.80;99.90;;;;;;4986429;28;20038;-90
2023/03/18 02:24:28;;;;;;;32.63;22.33;;;10.80;99.90;;;;;;5003090;28;20110;-90
2023/03/18 02:27:00;;;;;;;30.92;21.95;;;10.70;99.90;;;;;;4985191;28;20594;-90
2023/03/18 02:29:29;;;;;;;27.67;21.65;;;10.70;99.90;;;;;;5004416;28;20034;-90
2023/03/18 02:32:00;;;;;;;33.70;22.15;;;10.80;99.90;;;;;;5006945;28;20050;-90
2023/03/18 02:34:30;;;;;;;33.17;23.23;;;10.70;99.90;;;;;;4986185;28;20494;-90
2023/03/18 02:36:56;;;;;;;29.27;21.95;;;10.60;99.90;;;;;;4986864;28;20637;-90
2023/03/18 02:39:22;;;;;;;27.73;21.40;;;10.60;99.90;;;;;;4991318;28;20038;-90
2023/03/18 02:41:49;;;;;;;30.23;22.92;;;10.50;99.90;;;;;;4991433;28;20033;-90
2023/03/18 02:44:15;;;;;;;32.42;23.17;;;10.50;99.90;;;;;;5001449;28;20038;-91
2023/03/18 02:47:02;;;;;;;27.85;22.73;;;10.50;99.90;;;;;;4989033;28;20056;-90
2023/03/18 02:49:31;;;;;;;29.17;22.92;;;10.40;99.90;;;;;;5001917;28;20041;-90
2023/03/18 02:51:57;;;;;;;32.20;25.25;;;10.40;99.90;;;;;;5001299;28;20042;-90
2023/03/18 02:54:28;;;;;;;31.02;25.65;;;10.40;99.90;;;;;;4985634;28;20463;-90
2023/03/18 02:56:56;;;;;;;31.52;25.13;;;10.30;99.90;;;;;;5012647;28;20440;-90
2023/03/18 02:59:23;;;;;;;35.20;25.67;;;10.20;99.90;;;;;;5002425;28;20048;-90
2023/03/18 03:01:51;;;;;;;31.85;25.35;;;10.20;99.90;;;;;;4984271;28;20142;-90
2023/03/18 03:04:19;;;;;;;33.88;25.23;;;10.20;99.90;;;;;;4979826;28;20049;-90
2023/03/18 03:06:45;;;;;;;33.67;26.17;;;10.20;99.90;;;;;;4987077;28;20104;-91
2023/03/18 03:09:14;;;;;;;35.05;26.35;;;10.20;99.90;;;;;;4980665;28;20042;-90
2023/03/18 03:11:41;;;;;;;35.58;26.60;;;10.10;99.90;;;;;;4987885;28;20111;-90
2023/03/18 03:14:08;;;;;;;33.50;26.50;;;10.10;99.90;;;;;;4982930;28;20087;-90
2023/03/18 03:16:35;;;;;;;39.65;27.23;;;10.10;99.90;;;;;;5030492;28;20540;-89
2023/03/18 03:19:00;;;;;;;37.35;27.30;;;10.10;99.90;;;;;;4984612;28;20108;-90
2023/03/18 03:21:27;;;;;;;35.67;26.65;;;10.10;99.90;;;;;;4985731;28;20399;-90
2023/03/18 03:23:53;;;;;;;34.10;27.65;;;10.00;99.90;;;;;;5000524;28;20072;-89
2023/03/18 03:26:19;;;;;;;36.17;27.63;;;10.00;99.90;;;;;;4984423;28;20254;-90
2023/03/18 03:28:45;;;;;;;37.55;27.90;;;10.00;99.90;;;;;;4985267;28;20132;-90
2023/03/18 03:31:14;;;;;;;36.08;27.73;;;10.00;99.90;;;;;;4983962;28;20038;-90
2023/03/18 03:33:42;;;;;;;38.97;29.13;;;10.00;99.90;;;;;;4983197;28;20038;-90
2023/03/18 03:36:10;;;;;;;40.63;29.65;;;10.00;99.90;;;;;;4985126;28;20057;-90
2023/03/18 03:38:36;;;;;;;36.08;28.50;;;10.10;99.90;;;;;;5014398;28;20044;-90
2023/03/18 03:41:01;;;;;;;40.47;29.52;;;10.00;99.90;;;;;;5001476;28;20042;-90
2023/03/18 03:43:28;;;;;;;37.78;28.63;;;10.00;99.90;;;;;;4984470;28;20061;-90
2023/03/18 03:45:54;;;;;;;36.55;28.48;;;10.00;99.90;;;;;;4987552;28;20048;-90
2023/03/18 03:48:20;;;;;;;38.13;29.58;;;10.00;99.90;;;;;;4987317;28;20139;-90
2023/03/18 03:50:46;;;;;;;40.03;29.67;;;10.00;99.90;;;;;;4985745;28;20084;-90
2023/03/18 03:53:12;;;;;;;41.08;29.27;;;10.00;99.90;;;;;;5001185;28;20117;-90
2023/03/18 03:55:38;;;;;;;42.05;30.13;;;10.00;99.90;;;;;;5000803;28;20045;-90
2023/03/18 03:58:04;;;;;;;35.75;29.20;;;9.90;99.90;;;;;;4984475;28;20041;-90
2023/03/18 04:00:33;;;;;;;41.58;28.42;;;10.00;99.90;;;;;;5000260;28;20044;-90
2023/03/18 04:02:59;;;;;;;42.90;29.55;;;10.00;99.90;;;;;;5002006;28;20297;-90
2023/03/18 04:05:24;;;;;;;37.60;28.33;;;10.00;99.90;;;;;;4999628;28;20620;-90
2023/03/18 04:07:51;;;;;;;41.45;29.13;;;10.00;99.90;;;;;;4986236;28;20324;-90
2023/03/18 04:10:19;;;;;;;36.35;28.70;;;10.00;99.90;;;;;;4986820;28;20610;-90
2023/03/18 04:12:46;;;;;;;40.85;28.50;;;10.00;99.90;;;;;;4985313;28;20064;-90
2023/03/18 04:15:14;;;;;;;38.70;28.13;;;10.00;99.90;;;;;;4984337;28;20654;-90
2023/03/18 04:17:42;;;;;;;42.85;29.27;;;10.00;99.90;;;;;;4984334;28;20048;-90
2023/03/18 04:20:09;;;;;;;39.70;28.45;;;9.90;99.90;;;;;;4982407;28;20029;-90
2023/03/18 04:22:35;;;;;;;34.95;26.80;;;10.00;99.90;;;;;;4983579;28;20050;-90
2023/03/18 04:25:01;;;;;;;37.40;28.17;;;10.00;99.90;;;;;;4983133;28;20115;-90
2023/03/18 04:27:31;;;;;;;40.88;28.05;;;10.00;99.90;;;;;;4984172;28;20041;-90
2023/03/18 04:29:56;;;;;;;33.90;26.42;;;10.00;99.90;;;;;;4984188;28;20042;-90
2023/03/18 04:32:22;;;;;;;34.85;26.05;;;10.00;99.90;;;;;;4984317;28;20448;-90
2023/03/18 04:34:49;;;;;;;36.83;27.25;;;10.00;99.90;;;;;;4983916;28;20053;-90
2023/03/18 04:37:18;;;;;;;37.10;27.13;;;10.00;99.90;;;;;;4983960;28;20034;-90
2023/03/18 04:39:45;;;;;;;37.78;26.88;;;9.90;99.90;;;;;;5001444;28;20045;-90
2023/03/18 04:42:11;;;;;;;35.50;26.73;;;9.90;99.90;;;;;;5023366;28;20084;-90
2023/03/18 04:44:37;;;;;;;33.83;25.02;;;10.00;99.90;;;;;;4985303;28;20058;-90
2023/03/18 04:47:03;;;;;;;37.13;25.73;;;9.90;99.90;;;;;;4983166;28;20030;-90
2023/03/18 04:49:29;;;;;;;35.15;25.75;;;10.00;99.90;;;;;;4997133;28;20074;-88
2023/03/18 04:51:55;;;;;;;36.17;25.73;;;9.90;99.90;;;;;;4984005;28;20470;-90
2023/03/18 04:54:20;;;;;;;33.22;25.70;;;10.00;99.90;;;;;;4982051;28;20038;-90
2023/03/18 04:56:46;;;;;;;33.35;24.80;;;9.90;99.90;;;;;;4984313;28;20038;-90
2023/03/18 04:59:12;;;;;;;34.25;25.30;;;9.80;99.90;;;;;;5000186;28;20463;-90
2023/03/18 05:01:38;;;;;;;34.58;25.95;;;9.80;99.90;;;;;;4986058;28;20072;-90
2023/03/18 05:04:03;;;;;;;37.25;26.77;;;9.80;99.90;;;;;;4983343;28;20372;-89
2023/03/18 05:06:32;;;;;;;36.92;26.98;;;9.80;99.90;;;;;;4984243;28;20057;-90
2023/03/18 05:08:58;;;;;;;35.53;26.55;;;9.90;99.90;;;;;;4982240;28;20033;-90
2023/03/18 05:11:25;;;;;;;35.90;26.70;;;9.80;99.90;;;;;;4984124;28;20042;-89
2023/03/18 05:13:51;;;;;;;36.55;26.10;;;9.90;99.90;;;;;;4985382;28;20486;-90
2023/03/18 05:16:17;;;;;;;40.83;27.00;;;9.90;99.90;;;;;;4984638;28;20458;-90
2023/03/18 05:18:43;;;;;;;37.70;26.90;;;9.90;99.90;;;;;;4995856;28;20663;-90
2023/03/18 05:21:10;;;;;;;37.40;25.88;;;9.90;99.90;;;;;;4998580;28;20041;-90
2023/03/18 05:23:36;;;;;;;37.00;27.45;;;10.00;99.90;;;;;;4990043;28;20038;-90
2023/03/18 05:26:04;;;;;;;35.97;27.23;;;10.00;99.90;;;;;;4985258;28;20042;-90
2023/03/18 05:28:33;;;;;;;37.25;26.40;;;10.00;99.90;;;;;;4994623;28;20133;-90
2023/03/18 05:30:59;;;;;;;36.80;26.00;;;10.00;99.90;;;;;;4982104;28;20030;-90
2023/03/18 05:33:24;;;;;;;39.47;26.67;;;10.00;99.90;;;;;;4998491;28;20081;-90
2023/03/18 05:35:50;;;;;;;41.63;26.55;;;10.10;99.90;;;;;;4995423;28;20287;-90
2023/03/18 05:38:17;;;;;;;35.33;27.13;;;10.10;99.90;;;;;;4980918;28;20050;-90
2023/03/18 05:40:43;;;;;;;38.38;27.17;;;10.00;99.90;;;;;;4982931;28;20076;-90
2023/03/18 05:43:12;;;;;;;35.88;25.77;;;10.00;99.90;;;;;;4986146;28;20446;-90
2023/03/18 05:45:38;;;;;;;37.90;27.90;;;10.00;99.90;;;;;;4980627;28;20053;-90
2023/03/18 05:48:05;;;;;;;39.85;25.88;;;10.10;99.90;;;;;;4998123;28;20045;-90
2023/03/18 05:50:40;;;;;;;36.97;26.15;;;10.00;99.90;;;;;;4999231;28;20832;-90
2023/03/18 05:53:07;;;;;;;39.25;26.50;;;10.10;99.90;;;;;;4982437;28;20732;-90
2023/03/18 05:55:34;;;;;;;36.15;25.77;;;10.00;99.90;;;;;;5000761;28;20026;-90
2023/03/18 05:58:00;;;;;;;38.13;26.92;;;10.00;99.90;;;;;;5001121;28;20127;-90
2023/03/18 06:00:28;;;;;;;39.17;27.27;;;10.00;99.90;;;;;;5000782;28;20038;-89
2023/03/18 06:02:55;;;;;;;38.88;27.00;;;9.90;99.90;;;;;;4984766;28;20041;-90
2023/03/18 06:05:25;;;;;;;38.67;26.77;;;9.90;99.90;;;;;;4997488;28;20037;-90
2023/03/18 06:07:52;;;;;;;38.28;27.02;;;10.00;99.90;;;;;;4982548;28;20038;-89
2023/03/18 06:10:18;;;;;;;39.35;26.95;;;10.00;99.90;;;;;;4985014;28;20049;-90
2023/03/18 06:12:44;;;;;;;41.45;28.33;;;10.00;99.90;;;;;;4983726;28;20038;-90
2023/03/18 06:15:13;;;;;;;38.67;26.85;;;10.10;99.90;;;;;;4981705;28;20514;-89
2023/03/18 06:17:40;;;;;;;39.47;26.88;;;10.10;99.90;;;;;;4985449;28;20053;-90
2023/03/18 06:20:08;;;;;;;41.13;28.25;;;10.10;99.90;;;;;;4995775;28;20466;-90
2023/03/18 06:22:34;;;;;;;40.75;27.27;;;10.10;99.90;;;;;;4982873;28;20553;-90
2023/03/18 06:25:01;;;;;;;39.30;27.25;;;10.20;99.90;;;;;;5000829;28;20093;-91
2023/03/18 06:27:27;;;;;;;42.70;28.27;;;10.20;99.90;;;;;;4986522;28;20045;-90
2023/03/18 06:29:53;;;;;;;37.83;27.95;;;10.20;99.90;;;;;;4980462;28;20045;-90
2023/03/18 06:32:18;;;;;;;39.70;27.30;;;10.10;99.90;;;;;;4997881;28;20416;-88
2023/03/18 06:34:44;;;;;;;41.42;28.20;;;10.20;99.90;;;;;;4998011;28;20272;-89
2023/03/18 06:37:10;;;;;;;39.92;27.30;;;10.20;99.90;;;;;;4997035;28;20071;-90
2023/03/18 06:39:37;;;;;;;40.33;28.00;;;10.30;99.90;;;;;;4999312;28;20057;-90
2023/03/18 06:42:02;;;;;;;42.25;28.00;;;10.20;99.90;;;;;;4985927;28;20053;-90
2023/03/18 06:44:28;;;;;;;41.30;26.67;;;10.30;99.90;;;;;;4986921;28;20399;-90
2023/03/18 06:46:57;;;;;;;39.95;27.30;;;10.40;99.90;;;;;;4986005;28;20038;-90
2023/03/18 06:49:22;;;;;;;39.78;26.70;;;10.40;99.90;;;;;;5002761;28;20267;-90
2023/03/18 06:51:48;;;;;;;35.95;27.90;;;10.50;99.90;;;;;;4986264;28;20046;-90
2023/03/18 06:54:14;;;;;;;35.50;27.20;;;10.50;99.90;;;;;;4979254;28;20364;-90
2023/03/18 06:56:40;;;;;;;38.60;27.60;;;10.50;99.90;;;;;;5001279;28;20053;-89
2023/03/18 06:59:08;;;;;;;37.55;27.00;;;10.50;99.90;;;;;;4987111;28;20042;-90
2023/03/18 07:01:34;;;;;;;37.45;27.13;;;10.60;99.90;;;;;;5006330;28;20488;-90
2023/03/18 07:04:01;;;;;;;35.22;27.13;;;10.60;99.90;;;;;;4986276;28;20578;-90
2023/03/18 07:06:28;;;;;;;39.53;27.42;;;10.70;99.90;;;;;;4989649;28;20078;-90
2023/03/18 07:08:55;;;;;;;37.30;26.85;;;10.70;99.90;;;;;;4986443;28;20106;-90
2023/03/18 07:11:21;;;;;;;35.40;26.20;;;10.90;99.90;;;;;;4988505;28;20048;-90
2023/03/18 07:13:47;;;;;;;36.55;27.05;;;11.20;99.90;;;;;;4986817;28;20042;-90
2023/03/18 07:16:13;;;;;;;38.08;27.25;;;11.30;99.90;;;;;;4987185;28;20036;-90
2023/03/18 07:18:39;;;;;;;37.08;26.45;;;11.40;99.90;;;;;;5000052;28;20038;-90
2023/03/18 07:21:05;;;;;;;37.28;27.00;;;11.40;99.90;;;;;;4990513;28;20453;-90
2023/03/18 07:23:31;;;;;;;37.35;26.75;;;11.40;99.90;;;;;;5002934;28;20040;-90
2023/03/18 07:25:57;;;;;;;32.30;25.65;;;11.40;99.90;;;;;;5004230;28;20053;-90
2023/03/18 07:28:23;;;;;;;37.50;26.63;;;11.50;99.90;;;;;;5002050;28;20390;-90
2023/03/18 07:30:49;;;;;;;36.75;28.67;;;11.40;99.90;;;;;;4984585;28;20197;-89
2023/03/18 07:33:15;;;;;;;32.67;26.10;;;11.50;99.90;;;;;;4982945;28;20828;-90
2023/03/18 07:35:42;;;;;;;35.10;25.92;;;11.50;99.90;;;;;;4984501;28;20069;-90
2023/03/18 07:38:10;;;;;;;35.55;26.40;;;11.50;99.90;;;;;;4984220;28;20104;-89
2023/03/18 07:40:36;;;;;;;35.78;26.58;;;11.50;99.90;;;;;;4985017;28;20235;-90
2023/03/18 07:43:03;;;;;;;35.60;26.50;;;11.50;99.90;;;;;;4980342;28;20038;-90
2023/03/18 07:45:29;;;;;;;34.30;26.42;;;11.60;99.90;;;;;;4984472;28;20037;-89
2023/03/18 07:47:55;;;;;;;33.45;26.27;;;11.60;99.90;;;;;;4983281;28;20044;-90
2023/03/18 07:50:21;;;;;;;36.42;26.50;;;11.60;99.90;;;;;;4982127;28;20042;-89
2023/03/18 07:52:47;;;;;;;35.15;26.08;;;11.70;99.90;;;;;;4984038;28;20038;-89
2023/03/18 07:55:13;;;;;;;35.17;26.27;;;11.70;99.90;;;;;;4985202;28;20472;-89
2023/03/18 07:57:39;;;;;;;33.65;26.13;;;11.60;99.90;;;;;;4996703;28;20034;-89
2023/03/18 08:00:13;;;;;;;34.60;25.58;;;11.70;99.90;;;;;;5001488;28;20070;-89
2023/03/18 08:02:40;;;;;;;33.13;25.77;;;11.70;99.90;;;;;;4981301;28;20350;-85
2023/03/18 08:05:06;;;;;;;34.75;26.85;;;11.70;99.90;;;;;;4979751;28;20125;-85
2023/03/18 08:07:33;;;;;;;35.08;26.60;;;11.70;99.90;;;;;;4998099;28;20046;-85
2023/03/18 08:10:00;;;;;;;33.65;26.20;;;11.70;99.90;;;;;;4983466;28;20053;-84
2023/03/18 08:12:27;;;;;;;36.53;27.92;;;11.60;99.90;;;;;;5002161;28;20662;-85
2023/03/18 08:14:53;;;;;;;34.35;27.88;;;11.60;99.90;;;;;;4984567;28;20493;-85
2023/03/18 08:17:19;;;;;;;37.88;28.48;;;11.50;99.90;;;;;;4977333;28;20038;-85
2023/03/18 08:19:45;;;;;;;36.25;26.48;;;11.50;99.90;;;;;;4996412;28;20033;-84
2023/03/18 08:22:11;;;;;;;33.53;25.70;;;11.40;99.90;;;;;;4981313;28;20260;-84
2023/03/18 08:24:37;;;;;;;32.03;25.38;;;11.50;99.90;;;;;;4980656;28;20053;-85
2023/03/18 08:27:04;;;;;;;36.63;26.75;;;11.50;99.90;;;;;;4981571;28;20045;-85
2023/03/18 08:29:31;;;;;;;33.15;26.90;;;11.50;99.90;;;;;;4983032;28;20550;-84
2023/03/18 08:31:57;;;;;;;33.35;26.40;;;11.50;99.90;;;;;;4980652;28;20499;-85
2023/03/18 08:34:23;;;;;;;35.90;25.73;;;11.60;99.90;;;;;;4979213;28;21006;-84
2023/03/18 08:36:49;;;;;;;35.28;26.48;;;11.70;99.90;;;;;;4996976;28;20057;-84
2023/03/18 08:39:15;;;;;;;37.75;25.98;;;11.70;99.90;;;;;;4979943;28;20038;-84
2023/03/18 08:41:41;;;;;;;33.70;26.63;;;11.70;99.90;;;;;;4984505;28;20069;-84
2023/03/18 08:44:09;;;;;;;35.45;27.58;;;11.70;99.90;;;;;;4978491;28;20248;-85
2023/03/18 08:46:41;;;;;;;35.50;26.20;;;11.80;99.90;;;;;;4981769;28;20034;-84
2023/03/18 08:49:07;;;;;;;33.72;26.35;;;11.70;99.90;;;;;;4980920;28;20570;-84
2023/03/18 08:51:33;;;;;;;36.85;26.38;;;11.80;99.90;;;;;;4982145;28;20060;-84
2023/03/18 08:53:59;;;;;;;35.83;27.52;;;11.70;99.90;;;;;;4980858;28;20133;-84
2023/03/18 08:56:26;;;;;;;33.45;26.45;;;11.80;99.90;;;;;;4981268;28;20507;-84
2023/03/18 08:58:51;;;;;;;32.88;26.20;;;11.80;99.90;;;;;;4980404;28;20541;-84
2023/03/18 09:01:21;;;;;;;36.20;25.05;;;11.80;99.90;;;;;;4997907;28;20049;-84
2023/03/18 09:03:48;;;;;;;33.80;26.02;;;11.80;99.90;;;;;;4984449;28;20038;-84
2023/03/18 09:06:14;;;;;;;35.47;26.63;;;11.90;99.90;;;;;;4981197;28;20073;-84
2023/03/18 09:08:40;;;;;;;36.88;25.98;;;12.00;99.90;;;;;;4981968;28;20076;-84
2023/03/18 09:11:06;;;;;;;35.50;26.77;;;12.10;99.90;;;;;;4999551;28;20040;-84
2023/03/18 09:13:32;;;;;;;33.50;26.23;;;12.30;99.90;;;;;;5009213;28;20061;-84
2023/03/18 09:15:58;;;;;;;31.15;25.30;;;12.30;99.90;;;;;;4980726;28;20045;-84
2023/03/18 09:18:24;;;;;;;31.30;25.80;;;12.60;99.90;;;;;;4981806;28;20073;-84
2023/03/18 09:20:51;;;;;;;34.90;26.40;;;12.80;99.90;;;;;;4995865;28;20475;-85
2023/03/18 09:23:20;;;;;;;33.08;25.58;;;12.90;99.90;;;;;;4982940;28;20141;-84
2023/03/18 09:25:46;;;;;;;30.58;24.38;;;13.10;99.90;;;;;;5013114;28;20041;-84
2023/03/18 09:28:13;;;;;;;31.73;25.63;;;13.10;99.90;;;;;;4975189;28;20052;-84
2023/03/18 09:30:41;;;;;;;34.55;25.70;;;13.40;99.90;;;;;;5005222;28;20605;-85
2023/03/18 09:33:10;;;;;;;33.45;25.30;;;13.50;99.90;;;;;;5004110;28;20125;-84
2023/03/18 09:35:36;;;;;;;32.40;25.20;;;13.60;99.90;;;;;;5008114;28;20352;-85
2023/03/18 09:38:03;;;;;;;31.13;25.38;;;13.60;99.90;;;;;;4980279;28;20050;-84
2023/03/18 09:40:36;;;;;;;33.42;24.92;;;13.60;99.90;;;;;;4982250;28;20034;-84
2023/03/18 09:43:17;;;;;;;32.15;26.42;;;13.80;99.90;;;;;;4982554;28;20026;-84
2023/03/18 09:46:20;;;;;;;31.67;25.88;;;14.10;99.90;;;;;;4982089;28;20061;-85
2023/03/18 09:49:02;;;;;;;29.00;24.83;;;14.40;99.90;;;;;;4977453;28;20119;-84
2023/03/18 09:51:36;;;;;;;31.55;24.30;;;14.00;99.90;;;;;;4979757;28;20414;-83
2023/03/18 09:54:09;;;;;;;31.38;23.48;;;14.00;99.90;;;;;;4981064;28;20107;-83
2023/03/18 09:56:37;;;;;;;29.17;24.30;;;14.10;99.90;;;;;;4995805;28;20501;-83
2023/03/18 09:59:14;;;;;;;33.15;25.40;;;14.00;99.90;;;;;;4982693;28;20042;-83
2023/03/18 10:01:43;;;;;;;30.98;24.10;;;13.60;99.90;;;;;;4995732;28;20511;-83
2023/03/18 10:04:22;;;;;;;31.75;24.02;;;13.70;99.90;;;;;;4995380;28;20117;-84
2023/03/18 10:06:53;;;;;;;30.65;25.85;;;13.60;99.90;;;;;;4992960;28;20538;-84
2023/03/18 10:09:24;;;;;;;33.05;25.48;;;13.70;99.90;;;;;;4978236;28;20078;-84
2023/03/18 10:11:59;;;;;;;30.35;24.80;;;14.00;99.90;;;;;;4981119;28;20073;-84
2023/03/18 10:14:36;;;;;;;30.55;24.95;;;14.10;99.90;;;;;;4982520;28;20033;-84
2023/03/18 10:17:31;;;;;;;33.55;27.02;;;14.30;99.90;;;;;;5010422;28;20042;-84
2023/03/18 10:19:59;;;;;;;29.92;24.40;;;14.50;99.90;;;;;;4997991;28;20483;-84
2023/03/18 10:22:40;;;;;;;30.80;24.25;;;14.60;99.90;;;;;;4983272;28;20042;-84
2023/03/18 10:25:17;;;;;;;31.30;25.05;;;14.50;99.90;;;;;;4985145;28;20551;-84
2023/03/18 10:27:46;;;;;;;30.63;26.00;;;14.70;99.90;;;;;;4984588;28;20494;-83
2023/03/18 10:31:06;;;;;;;32.28;25.38;;;14.70;99.90;;;;;;4982120;28;20042;-84
2023/03/18 10:33:49;;;;;;;29.35;25.33;;;14.80;99.90;;;;;;4931016;28;20055;-84
2023/03/18 10:36:25;;;;;;;32.20;25.65;;;14.60;99.90;;;;;;4988205;28;20116;-83
2023/03/18 10:38:55;;;;;;;31.48;25.13;;;14.60;99.90;;;;;;4983005;28;20569;-83
2023/03/18 10:41:36;;;;;;;30.30;25.58;;;14.40;99.90;;;;;;4986111;28;20065;-83
2023/03/18 10:44:17;;;;;;;29.23;24.35;;;14.70;99.90;;;;;;4984280;28;20103;-84
2023/03/18 10:46:45;;;;;;;29.60;24.15;;;14.70;99.90;;;;;;4984030;28;20447;-84
2023/03/18 10:49:26;;;;;;;28.98;23.17;;;14.90;99.90;;;;;;4996156;28;20137;-84
2023/03/18 10:52:15;;;;;;;33.40;24.35;;;15.30;99.90;;;;;;4988143;28;20072;-84
2023/03/18 10:54:51;;;;;;;31.67;24.20;;;15.10;99.90;;;;;;4999101;28;20049;-84
2023/03/18 10:57:19;;;;;;;32.15;25.67;;;15.30;99.90;;;;;;4984420;28;20026;-83
2023/03/18 10:59:46;;;;;;;28.05;24.10;;;15.30;99.90;;;;;;4986270;28;20425;-83
2023/03/18 11:02:21;;;;;;;27.73;23.05;;;15.60;99.90;;;;;;4982937;28;20052;-84
2023/03/18 11:05:03;;;;;;;30.10;23.45;;;15.90;99.90;;;;;;4998343;28;20045;-84
2023/03/18 11:07:30;;;;;;;25.45;20.08;;;16.20;99.90;;;;;;4983393;28;20069;-84
2023/03/18 11:10:13;;;;;;;31.20;22.45;;;16.00;99.90;;;;;;4983560;28;20042;-83
2023/03/18 11:12:39;;;;;;;28.50;21.50;;;16.30;99.90;;;;;;4986467;28;20132;-83
2023/03/18 11:15:19;;;;;;;27.45;21.85;;;16.40;99.90;;;;;;4982085;28;20301;-84
2023/03/18 11:17:49;;;;;;;27.13;22.23;;;16.60;99.90;;;;;;4982863;28;20038;-84
2023/03/18 11:20:23;;;;;;;25.58;21.17;;;16.60;99.90;;;;;;5000457;28;20136;-84
2023/03/18 11:22:51;;;;;;;26.80;22.75;;;16.70;99.90;;;;;;4985354;28;20103;-84
2023/03/18 11:25:19;;;;;;;26.35;21.38;;;16.80;99.90;;;;;;4998665;28;20175;-84
2023/03/18 11:27:57;;;;;;;20.92;17.33;;;16.40;99.90;;;;;;4999893;28;20045;-84
2023/03/18 11:30:28;;;;;;;19.38;16.08;;;16.50;99.90;;;;;;4982457;28;20046;-84
2023/03/18 11:32:53;;;;;;;19.45;16.23;;;16.10;99.90;;;;;;4982630;28;20409;-84
2023/03/18 11:35:22;;;;;;;18.40;16.00;;;16.60;99.90;;;;;;4983942;28;20403;-84
2023/03/18 11:37:48;;;;;;;21.85;18.33;;;16.50;99.90;;;;;;4998998;28;20507;-84
2023/03/18 11:40:24;;;;;;;24.35;18.60;;;17.00;99.90;;;;;;4982156;28;20476;-84
2023/03/18 11:43:11;;;;;;;25.63;19.50;;;16.90;99.90;;;;;;5012001;28;20045;-83
2023/03/18 11:45:47;;;;;;;22.05;18.70;;;17.00;99.90;;;;;;4986569;28;20483;-83
2023/03/18 11:48:38;;;;;;;25.25;18.63;;;17.50;99.90;;;;;;5022376;28;20104;-83
2023/03/18 11:51:12;;;;;;;24.80;17.88;;;17.80;99.90;;;;;;4979586;28;20222;-83
2023/03/18 11:53:50;;;;;;;22.42;17.35;;;17.50;1.00;;;;;;4981320;28;20168;-83
2023/03/18 11:56:31;;;;;;;23.00;17.95;;;17.40;99.90;;;;;;4984279;28;20069;-84
2023/03/18 11:59:18;;;;;;;20.92;15.73;;;17.40;99.90;;;;;;4998805;28;20112;-84
2023/03/18 12:01:56;;;;;;;20.23;16.45;;;17.50;99.90;;;;;;4981161;28;20489;-84
2023/03/18 12:05:04;;;;;;;16.92;14.63;;;17.60;34.20;;;;;;4998968;28;20402;-83
2023/03/18 12:07:55;;;;;;;17.02;13.73;;;17.40;8.70;;;;;;4935638;28;20591;-83
2023/03/18 12:10:36;;;;;;;16.27;13.10;;;17.60;1.00;;;;;;4983239;28;20406;-85
2023/03/18 12:13:13;;;;;;;14.63;13.02;;;17.50;76.10;;;;;;4996336;28;20064;-84
2023/03/18 12:16:05;;;;;;;15.00;13.18;;;16.90;99.90;;;;;;4996698;28;20049;-84
2023/03/18 12:18:41;;;;;;;16.63;13.27;;;17.70;1.00;;;;;;4996782;28;20120;-83
2023/03/18 12:21:19;;;;;;;14.82;13.07;;;17.20;99.90;;;;;;4979935;28;20407;-84
2023/03/18 12:24:14;;;;;;;15.75;11.80;;;17.00;1.00;;;;;;4985317;28;20095;-84
2023/03/18 12:26:57;;;;;;;12.45;10.68;;;17.00;1.00;;;;;;4982741;28;20517;-83
2023/03/18 12:29:41;;;;;;;13.35;11.50;;;16.80;41.00;;;;;;5006013;28;20042;-83
2023/03/18 12:32:32;;;;;;;12.43;10.33;;;16.70;1.00;;;;;;5000472;28;20294;-83
2023/03/18 12:35:36;;;;;;;10.30;9.30;;;16.80;99.90;;;;;;4976239;28;20064;-84
2023/03/18 12:38:14;;;;;;;10.52;9.40;;;17.00;99.90;;;;;;4995578;28;20810;-83
2023/03/18 12:41:11;;;;;;;11.27;9.50;;;17.30;1.00;;;;;;4982857;28;20445;-83
2023/03/18 12:44:01;;;;;;;10.32;8.82;;;17.70;99.90;;;;;;4981974;28;20045;-84
2023/03/18 12:46:39;;;;;;;11.07;8.48;;;18.00;99.90;;;;;;4977532;28;20077;-83